createdAt,value
2018-12-24T00:03:37.368Z,0.87
2018-12-24T00:08:30.764Z,0.70
2018-12-24T00:13:24.458Z,0.73
2018-12-24T00:18:17.833Z,0.70
2018-12-24T00:23:11.508Z,0.90
2018-12-24T00:28:04.895Z,0.70
2018-12-24T00:32:58.576Z,0.67
2018-12-24T00:37:51.923Z,0.70
2018-12-24T00:42:45.313Z,0.80
2018-12-24T00:47:39.471Z,0.77
2018-12-24T00:52:32.853Z,0.70
2018-12-24T00:57:26.238Z,0.80
2018-12-24T01:02:19.610Z,0.63
2018-12-24T01:07:12.986Z,0.70
2018-12-24T01:12:06.366Z,0.57
2018-12-24T01:16:59.752Z,1.00
2018-12-24T01:21:53.277Z,0.67
2018-12-24T01:26:46.751Z,0.63
2018-12-24T01:31:40.564Z,0.67
2018-12-24T01:36:33.999Z,0.60
2018-12-24T01:41:27.393Z,0.70
2018-12-24T01:46:20.761Z,0.80
2018-12-24T01:51:14.146Z,0.67
2018-12-24T01:56:07.534Z,0.70
2018-12-24T02:01:00.909Z,0.60
2018-12-24T02:05:54.262Z,0.63
2018-12-24T02:10:47.683Z,0.70
2018-12-24T02:15:41.062Z,0.70
2018-12-24T02:20:34.825Z,0.73
2018-12-24T02:25:28.196Z,0.70
2018-12-24T02:30:21.814Z,0.70
2018-12-24T02:35:15.202Z,0.63
2018-12-24T02:40:08.560Z,0.63
2018-12-24T02:45:02.018Z,0.70
2018-12-24T02:49:55.394Z,0.53
2018-12-24T02:54:48.783Z,0.60
2018-12-24T02:59:42.153Z,0.60
2018-12-24T03:04:35.768Z,0.63
2018-12-24T03:09:29.163Z,0.60
2018-12-24T03:14:22.516Z,0.80
2018-12-24T03:19:15.876Z,0.57
2018-12-24T03:24:09.295Z,0.57
2018-12-24T03:29:02.779Z,0.53
2018-12-24T03:33:56.237Z,0.73
2018-12-24T03:38:49.624Z,0.60
2018-12-24T03:43:43.111Z,0.80
2018-12-24T03:48:36.482Z,0.70
2018-12-24T03:53:29.848Z,0.70
2018-12-24T03:58:23.223Z,0.67
2018-12-24T04:03:16.659Z,0.60
2018-12-24T04:08:10.035Z,0.43
2018-12-24T04:13:03.645Z,0.80
2018-12-24T04:17:57.094Z,0.90
2018-12-24T04:22:50.813Z,0.60
2018-12-24T04:27:44.259Z,0.60
2018-12-24T04:32:37.869Z,0.57
2018-12-24T04:37:31.249Z,0.70
2018-12-24T04:42:24.652Z,0.67
2018-12-24T04:47:18.014Z,0.60
2018-12-24T04:52:11.383Z,0.50
2018-12-24T04:57:04.810Z,0.70
2018-12-24T05:01:58.198Z,0.70
2018-12-24T05:06:51.794Z,0.60
2018-12-24T05:11:45.155Z,0.40
2018-12-24T05:16:38.629Z,0.57
2018-12-24T05:21:32.215Z,0.70
2018-12-24T05:26:25.560Z,0.60
2018-12-24T05:31:18.935Z,0.70
2018-12-24T05:36:12.316Z,0.40
2018-12-24T05:41:05.731Z,0.60
2018-12-24T05:45:59.155Z,0.80
2018-12-24T05:50:52.521Z,0.70
2018-12-24T05:55:45.904Z,0.63
2018-12-24T06:00:39.305Z,0.70
2018-12-24T06:05:32.674Z,0.43
2018-12-24T06:10:26.337Z,0.60
2018-12-24T06:15:19.715Z,0.80
2018-12-24T06:20:13.094Z,0.57
2018-12-24T06:25:06.459Z,0.67
2018-12-24T06:29:59.815Z,0.60
2018-12-24T06:34:53.240Z,0.50
2018-12-24T06:39:46.597Z,0.43
2018-12-24T06:44:39.975Z,0.80
2018-12-24T06:49:33.331Z,0.80
2018-12-24T06:54:26.736Z,0.50
2018-12-24T06:59:20.119Z,0.50
2018-12-24T07:04:13.480Z,0.67
2018-12-24T07:09:06.975Z,0.40
2018-12-24T07:14:00.617Z,0.40
2018-12-24T07:18:54.251Z,0.50
2018-12-24T07:23:48.130Z,0.50
2018-12-24T07:28:41.476Z,0.87
2018-12-24T07:33:35.063Z,0.60
2018-12-24T07:38:28.561Z,0.53
2018-12-24T07:43:22.114Z,0.50
2018-12-24T07:48:15.484Z,0.80
2018-12-24T07:53:08.887Z,0.60
2018-12-24T07:58:02.355Z,0.73
2018-12-24T08:02:55.759Z,0.40
2018-12-24T08:07:50.816Z,0.60
2018-12-24T08:12:42.643Z,0.80
2018-12-24T08:17:36.062Z,0.50
2018-12-24T08:22:29.742Z,0.40
2018-12-24T08:27:23.293Z,0.60
2018-12-24T08:32:16.793Z,0.50
2018-12-24T08:37:10.433Z,0.67
2018-12-24T08:42:03.943Z,0.50
2018-12-24T08:46:57.338Z,0.50
2018-12-24T08:51:50.768Z,0.60
2018-12-24T08:56:44.151Z,0.47
2018-12-24T09:01:37.757Z,0.57
2018-12-24T09:06:31.135Z,0.93
2018-12-24T09:11:24.819Z,0.60
2018-12-24T09:16:18.413Z,0.60
2018-12-24T09:21:11.792Z,0.80
2018-12-24T09:26:05.183Z,0.67
2018-12-24T09:30:58.552Z,0.90
2018-12-24T09:35:53.634Z,0.80
2018-12-24T09:40:45.320Z,0.80
2018-12-24T09:45:38.777Z,0.90
2018-12-24T09:50:32.392Z,0.70
2018-12-24T09:55:26.071Z,0.70
2018-12-24T10:00:19.447Z,0.60
2018-12-24T10:05:14.199Z,1.03
2018-12-24T10:10:12.076Z,0.87
2018-12-24T10:15:08.126Z,1.00
2018-12-24T10:19:59.406Z,0.80
2018-12-24T10:24:52.796Z,0.80
2018-12-24T10:29:46.249Z,0.77
2018-12-24T10:34:39.881Z,0.90
2018-12-24T10:39:33.277Z,1.10
2018-12-24T10:44:26.947Z,0.80
2018-12-24T10:49:20.372Z,1.10
2018-12-24T10:54:13.804Z,0.90
2018-12-24T10:59:07.538Z,0.80
2018-12-24T11:04:01.066Z,0.90
2018-12-24T11:08:54.462Z,1.30
2018-12-24T11:13:47.828Z,0.90
2018-12-24T11:18:41.224Z,1.30
2018-12-24T11:23:34.601Z,0.90
2018-12-24T11:28:28.023Z,0.90
2018-12-24T11:33:21.636Z,1.00
2018-12-24T11:38:15.017Z,0.80
2018-12-24T11:43:08.421Z,0.80
2018-12-24T11:48:01.793Z,0.87
2018-12-24T11:52:55.185Z,0.80
2018-12-24T11:57:48.576Z,0.80
2018-12-24T12:02:42.251Z,0.80
2018-12-24T12:07:35.630Z,0.90
2018-12-24T12:12:29.354Z,0.90
2018-12-24T12:17:22.761Z,1.00
2018-12-24T12:22:16.202Z,0.90
2018-12-24T12:27:09.578Z,1.00
2018-12-24T12:32:03.138Z,0.77
2018-12-24T12:36:56.531Z,0.50
2018-12-24T12:41:50.316Z,0.73
2018-12-24T12:46:43.709Z,0.60
2018-12-24T12:51:37.145Z,1.33
2018-12-24T12:56:30.631Z,1.00
2018-12-24T13:01:24.316Z,0.90
2018-12-24T13:06:17.872Z,0.90
2018-12-24T13:11:11.246Z,1.10
2018-12-24T13:16:04.755Z,1.10
2018-12-24T13:20:58.450Z,0.63
2018-12-24T13:25:52.183Z,0.70
2018-12-24T13:30:45.898Z,0.83
2018-12-24T13:35:39.335Z,0.70
2018-12-24T13:40:32.720Z,1.52
2018-12-24T13:45:26.279Z,1.37
2018-12-24T13:50:19.678Z,1.10
2018-12-24T13:55:13.069Z,1.00
2018-12-24T14:00:06.486Z,1.10
2018-12-24T14:05:00.262Z,1.20
2018-12-24T14:09:53.454Z,1.00
2018-12-24T14:14:46.877Z,1.13
2018-12-24T14:19:40.285Z,1.17
2018-12-24T14:24:33.929Z,1.12
2018-12-24T15:18:56.362Z,1.10
2018-12-24T15:24:08.114Z,0.90
2018-12-24T15:29:18.060Z,1.00
2018-12-24T15:34:19.400Z,1.13
2018-12-24T15:39:56.605Z,1.30
2018-12-24T15:44:41.955Z,0.90
2018-12-24T15:49:35.344Z,1.07
2018-12-24T15:54:29.031Z,0.93
2018-12-24T15:59:22.447Z,0.90
2018-12-24T16:04:16.101Z,1.40
2018-12-24T16:09:09.600Z,0.90
2018-12-24T16:14:03.463Z,0.90
2018-12-24T16:18:56.850Z,1.30
2018-12-24T16:23:50.535Z,1.27
2018-12-24T16:28:43.928Z,1.30
2018-12-24T16:33:37.605Z,1.30
2018-12-24T16:38:31.121Z,1.10
2018-12-24T16:43:24.408Z,1.47
2018-12-24T16:48:17.779Z,1.37
2018-12-24T16:53:11.414Z,1.00
2018-12-24T16:58:05.084Z,1.20
2018-12-24T17:02:58.774Z,1.00
2018-12-24T17:07:52.166Z,1.40
2018-12-24T17:12:45.827Z,1.10
2018-12-24T17:17:39.233Z,1.60
2018-12-24T17:22:32.633Z,1.10
2018-12-24T17:27:26.014Z,1.10
2018-12-24T17:32:19.457Z,1.40
2018-12-24T17:37:12.931Z,0.97
2018-12-24T17:42:06.291Z,1.13
2018-12-24T17:46:59.663Z,1.17
2018-12-24T17:51:53.093Z,1.33
2018-12-24T17:56:46.499Z,1.30
2018-12-24T18:01:39.895Z,1.13
2018-12-24T18:06:33.303Z,1.40
2018-12-24T18:11:26.694Z,1.60
2018-12-24T18:16:20.073Z,1.40
2018-12-24T18:21:13.842Z,1.40
2018-12-24T18:26:07.251Z,1.90
2018-12-24T18:31:00.640Z,1.67
2018-12-24T18:35:54.039Z,1.50
2018-12-24T18:40:47.448Z,1.40
2018-12-24T18:45:40.828Z,1.50
2018-12-24T18:50:34.293Z,1.20
2018-12-24T18:55:27.656Z,1.20
2018-12-24T19:00:21.131Z,1.17
2018-12-24T19:05:15.736Z,1.10
2018-12-24T19:10:09.141Z,1.07
2018-12-24T19:15:02.513Z,1.40
2018-12-24T19:19:55.895Z,1.40
2018-12-24T19:24:49.284Z,1.33
2018-12-24T19:29:42.728Z,1.97
2018-12-24T19:34:36.316Z,1.80
2018-12-24T19:39:29.801Z,1.50
2018-12-24T19:44:23.153Z,1.50
2018-12-24T19:49:16.562Z,1.40
2018-12-24T19:54:10.039Z,1.20
2018-12-24T19:59:03.560Z,1.80
2018-12-24T20:03:57.237Z,1.23
2018-12-24T20:09:00.614Z,1.27
2018-12-24T20:14:05.311Z,1.73
2018-12-24T20:19:15.735Z,1.30
2018-12-24T20:24:27.700Z,0.90
2018-12-24T20:29:34.416Z,1.17
2018-12-24T20:34:33.797Z,1.23
2018-12-24T20:44:48.671Z,1.22
2018-12-24T20:49:42.053Z,1.10
2018-12-24T20:54:35.483Z,1.30
2018-12-24T20:59:28.890Z,1.00
2018-12-24T21:04:22.531Z,1.00
2018-12-24T21:09:52.614Z,1.40
2018-12-24T21:14:46.446Z,2.27
2018-12-24T21:19:39.817Z,1.87
2018-12-24T21:24:33.787Z,2.00
2018-12-24T21:29:27.185Z,1.90
2018-12-24T21:34:20.600Z,1.23
2018-12-24T21:39:13.971Z,1.33
2018-12-24T21:44:07.394Z,1.40
2018-12-24T21:49:00.838Z,1.30
2018-12-24T21:53:54.281Z,1.20
2018-12-24T21:59:00.642Z,1.70
2018-12-24T22:03:58.640Z,1.53
2018-12-24T22:08:49.369Z,1.40
2018-12-24T22:13:42.738Z,1.40
2018-12-24T22:18:36.117Z,1.60
2018-12-24T22:23:29.540Z,1.13
2018-12-24T22:28:22.967Z,1.27
2018-12-24T22:33:16.390Z,1.30
2018-12-24T22:38:09.768Z,1.10
2018-12-24T22:43:03.822Z,1.10
2018-12-24T22:47:57.201Z,1.20
2018-12-24T22:52:50.893Z,1.10
2018-12-24T22:57:44.300Z,1.10
2018-12-24T23:02:38.009Z,1.10
2018-12-24T23:07:31.396Z,1.10
2018-12-24T23:12:24.783Z,1.00
2018-12-24T23:17:18.160Z,1.03
2018-12-24T23:22:11.572Z,1.00
2018-12-24T23:27:04.954Z,1.03
2018-12-24T23:31:58.551Z,1.10
2018-12-24T23:36:51.996Z,0.90
2018-12-24T23:41:45.446Z,1.20
2018-12-24T23:46:38.864Z,1.30
2018-12-24T23:51:32.260Z,1.20
2018-12-24T23:56:25.653Z,1.10
